createdAt,value
2022-12-03T00:00:17.269Z,60.07
2022-12-03T00:02:45.861Z,62.57
2022-12-03T00:05:14.543Z,65.43
2022-12-03T00:07:43.111Z,62.70
2022-12-03T00:10:13.507Z,58.17
2022-12-03T00:12:43.451Z,66.87
2022-12-03T00:15:12.843Z,66.63
2022-12-03T00:17:41.378Z,71.47
2022-12-03T00:20:13.189Z,64.20
2022-12-03T00:22:41.824Z,60.60
2022-12-03T00:25:11.053Z,64.10
2022-12-03T00:27:39.596Z,59.77
2022-12-03T00:30:12.574Z,64.73
2022-12-03T00:32:51.268Z,65.23
2022-12-03T00:35:19.999Z,56.50
2022-12-03T00:37:48.607Z,69.03
2022-12-03T00:40:17.260Z,75.67
2022-12-03T00:42:45.826Z,68.27
2022-12-03T00:45:15.876Z,57.60
2022-12-03T00:47:44.355Z,64.13
2022-12-03T00:50:13.600Z,63.67
2022-12-03T00:52:42.072Z,69.27
2022-12-03T00:55:12.993Z,68.77
2022-12-03T00:57:42.142Z,69.03
2022-12-03T01:00:13.723Z,69.53
2022-12-03T01:02:43.808Z,55.33
2022-12-03T01:05:12.501Z,64.87
2022-12-03T01:07:41.101Z,59.90
2022-12-03T01:10:10.922Z,65.87
2022-12-03T01:12:39.593Z,60.90
2022-12-03T01:15:10.001Z,58.70
2022-12-03T01:17:39.227Z,67.70
2022-12-03T01:20:12.172Z,60.47
2022-12-03T01:22:40.722Z,59.70
2022-12-03T01:25:10.294Z,58.63
2022-12-03T01:27:38.766Z,58.83
2022-12-03T01:30:10.770Z,54.70
2022-12-03T01:32:38.465Z,55.00
2022-12-03T01:35:09.459Z,59.03
2022-12-03T01:37:37.987Z,55.67
2022-12-03T01:40:09.792Z,60.57
2022-12-03T01:42:42.635Z,59.07
2022-12-03T01:45:22.071Z,61.63
2022-12-03T01:47:51.164Z,58.57
2022-12-03T01:50:28.648Z,48.47
2022-12-03T01:53:01.234Z,69.57
2022-12-03T01:55:30.345Z,57.47
2022-12-03T01:58:02.967Z,66.73
2022-12-03T02:00:31.976Z,54.33
2022-12-03T02:03:05.051Z,64.17
2022-12-03T02:05:36.364Z,53.47
2022-12-03T02:08:33.704Z,69.40
2022-12-03T02:11:06.984Z,59.33
2022-12-03T02:13:51.799Z,65.17
2022-12-03T02:16:20.662Z,62.57
2022-12-03T02:18:49.981Z,54.73
2022-12-03T02:21:28.956Z,56.93
2022-12-03T02:24:13.176Z,62.40
2022-12-03T02:26:43.250Z,62.57
2022-12-03T02:29:12.027Z,58.50
2022-12-03T02:31:40.731Z,60.43
2022-12-03T02:34:10.407Z,60.47
2022-12-03T02:36:40.307Z,67.30
2022-12-03T02:39:09.186Z,62.23
2022-12-03T02:41:55.160Z,70.63
2022-12-03T02:44:25.085Z,65.07
2022-12-03T02:46:53.711Z,64.63
2022-12-03T02:49:22.340Z,81.93
2022-12-03T02:51:51.339Z,61.33
2022-12-03T02:54:20.143Z,61.40
2022-12-03T02:56:48.775Z,64.17
2022-12-03T02:59:17.772Z,68.90
2022-12-03T03:01:48.233Z,69.73
2022-12-03T03:04:17.515Z,65.97
2022-12-03T03:06:46.853Z,70.13
2022-12-03T03:09:15.461Z,71.93
2022-12-03T03:11:44.216Z,76.57
2022-12-03T03:14:13.317Z,76.63
2022-12-03T03:16:41.987Z,78.97
2022-12-03T03:19:12.584Z,71.20
2022-12-03T03:21:41.164Z,68.47
2022-12-03T03:24:10.986Z,70.00
2022-12-03T03:26:39.529Z,71.27
2022-12-03T03:29:08.420Z,78.30
2022-12-03T03:31:37.589Z,61.77
2022-12-03T03:34:06.457Z,71.90
2022-12-03T03:36:37.271Z,60.10
2022-12-03T03:39:07.647Z,69.83
2022-12-03T03:41:37.360Z,74.37
2022-12-03T03:44:09.631Z,68.77
2022-12-03T03:46:38.902Z,68.93
2022-12-03T03:49:09.651Z,69.40
2022-12-03T03:51:40.741Z,61.53
2022-12-03T03:54:10.029Z,60.50
2022-12-03T03:56:39.116Z,61.07
2022-12-03T03:59:07.699Z,57.67
2022-12-03T04:01:36.964Z,60.33
2022-12-03T04:04:07.922Z,60.67
2022-12-03T04:06:36.462Z,62.93
2022-12-03T04:09:06.379Z,58.00
2022-12-03T04:11:52.344Z,55.00
2022-12-03T04:14:20.897Z,64.97
2022-12-03T04:16:50.589Z,59.93
2022-12-03T04:19:19.546Z,72.60
2022-12-03T04:22:05.680Z,66.87
2022-12-03T04:24:35.674Z,59.93
2022-12-03T04:27:21.867Z,66.60
2022-12-03T04:29:50.382Z,63.60
2022-12-03T04:32:36.817Z,59.50
2022-12-03T04:35:24.174Z,57.43
2022-12-03T04:37:52.864Z,55.50
2022-12-03T04:40:40.390Z,68.40
2022-12-03T04:43:09.069Z,51.43
2022-12-03T04:45:37.712Z,56.17
2022-12-03T04:48:06.925Z,47.40
2022-12-03T04:50:35.624Z,59.20
2022-12-03T04:53:04.138Z,56.73
2022-12-03T04:55:34.235Z,58.10
2022-12-03T04:58:03.017Z,58.33
2022-12-03T05:00:31.652Z,64.00
2022-12-03T05:03:00.413Z,64.57
2022-12-03T05:05:28.973Z,62.50
2022-12-03T05:07:57.687Z,54.10
2022-12-03T05:10:36.178Z,51.17
2022-12-03T05:13:04.822Z,54.37
2022-12-03T05:15:33.443Z,61.30
2022-12-03T05:18:01.943Z,54.10
2022-12-03T05:20:44.764Z,69.27
2022-12-03T05:23:18.343Z,67.80
2022-12-03T05:25:48.564Z,75.50
2022-12-03T05:28:17.233Z,60.70
2022-12-03T05:30:45.820Z,59.30
2022-12-03T05:33:14.454Z,53.97
2022-12-03T05:35:43.057Z,50.40
2022-12-03T05:38:11.659Z,51.63
2022-12-03T05:40:40.220Z,64.33
2022-12-03T05:43:09.287Z,57.97
2022-12-03T05:45:40.840Z,58.90
2022-12-03T05:48:11.884Z,53.20
2022-12-03T05:50:44.348Z,60.57
2022-12-03T05:53:17.539Z,57.33
2022-12-03T05:55:46.974Z,55.13
2022-12-03T05:58:16.954Z,52.87
2022-12-03T06:00:45.562Z,54.87
2022-12-03T06:03:14.278Z,56.57
2022-12-03T06:05:42.939Z,57.10
2022-12-03T06:08:13.780Z,54.23
2022-12-03T06:10:42.639Z,52.90
2022-12-03T06:13:11.161Z,59.50
2022-12-03T06:15:44.006Z,50.50
2022-12-03T06:18:12.836Z,49.20
2022-12-03T06:20:41.579Z,46.60
2022-12-03T06:23:10.189Z,53.13
2022-12-03T06:25:38.719Z,47.83
2022-12-03T06:28:07.492Z,47.30
2022-12-03T06:30:43.945Z,47.57
2022-12-03T06:33:12.794Z,50.87
2022-12-03T06:35:41.335Z,44.00
2022-12-03T06:38:09.911Z,51.33
2022-12-03T06:40:45.923Z,48.63
2022-12-03T06:43:14.584Z,39.37
2022-12-03T06:45:47.894Z,43.40
2022-12-03T06:48:17.009Z,38.17
2022-12-03T06:50:45.569Z,37.27
2022-12-03T06:53:14.272Z,39.10
2022-12-03T06:55:42.786Z,41.30
2022-12-03T06:58:11.318Z,33.47
2022-12-03T07:00:53.920Z,36.67
2022-12-03T07:03:24.410Z,40.47
2022-12-03T07:05:53.225Z,40.30
2022-12-03T07:08:21.902Z,42.47
2022-12-03T07:10:50.426Z,40.63
2022-12-03T07:13:18.958Z,46.10
2022-12-03T07:15:49.005Z,38.23
2022-12-03T07:18:17.932Z,34.13
2022-12-03T07:20:46.719Z,35.40
2022-12-03T07:23:15.196Z,42.60
2022-12-03T07:25:43.838Z,31.67
2022-12-03T07:28:12.471Z,34.73
2022-12-03T07:30:41.046Z,38.90
2022-12-03T07:33:11.147Z,45.80
2022-12-03T07:35:39.716Z,40.40
2022-12-03T07:38:08.363Z,35.53
2022-12-03T07:40:36.919Z,40.80
2022-12-03T07:43:05.648Z,43.23
2022-12-03T07:45:34.247Z,42.50
2022-12-03T07:48:02.887Z,39.63
2022-12-03T07:50:32.913Z,41.33
2022-12-03T07:53:01.429Z,39.30
2022-12-03T07:55:30.066Z,44.40
2022-12-03T07:57:58.658Z,39.50
2022-12-03T08:00:27.519Z,46.77
2022-12-03T08:02:56.770Z,44.60
2022-12-03T08:05:27.090Z,38.50
2022-12-03T08:07:57.310Z,37.23
2022-12-03T08:10:58.252Z,36.57
2022-12-03T08:13:32.879Z,33.83
2022-12-03T08:16:15.526Z,32.33
2022-12-03T08:18:44.977Z,35.70
2022-12-03T08:21:16.455Z,31.60
2022-12-03T08:23:46.956Z,34.37
2022-12-03T08:26:24.292Z,34.70
2022-12-03T08:28:54.033Z,33.77
2022-12-03T08:31:32.291Z,33.30
2022-12-03T08:34:18.696Z,34.80
2022-12-03T08:36:48.921Z,32.10
2022-12-03T08:39:33.279Z,28.77
2022-12-03T08:42:31.556Z,29.83
2022-12-03T08:45:42.717Z,27.17
2022-12-03T08:48:36.860Z,33.60
2022-12-03T08:51:20.349Z,29.47
2022-12-03T08:53:54.284Z,26.87
2022-12-03T08:56:31.195Z,29.00
2022-12-03T08:59:04.068Z,27.43
2022-12-03T09:01:39.537Z,28.90
2022-12-03T09:04:28.368Z,29.47
2022-12-03T09:07:00.259Z,30.43
2022-12-03T09:09:29.233Z,34.00
2022-12-03T09:11:59.183Z,30.07
2022-12-03T09:14:27.763Z,27.93
2022-12-03T09:16:57.065Z,30.87
2022-12-03T09:19:27.967Z,25.10
2022-12-03T09:21:56.692Z,28.30
2022-12-03T09:24:25.428Z,33.97
2022-12-03T09:26:54.126Z,29.40
2022-12-03T09:29:24.231Z,27.27
2022-12-03T09:31:54.631Z,30.03
2022-12-03T09:34:23.461Z,28.47
2022-12-03T09:36:51.917Z,26.50
2022-12-03T09:39:20.906Z,25.30
2022-12-03T09:41:50.822Z,26.17
2022-12-03T09:44:20.662Z,29.27
2022-12-03T09:46:51.289Z,25.37
2022-12-03T09:49:20.869Z,28.33
2022-12-03T09:51:49.725Z,27.30
2022-12-03T09:54:25.457Z,26.67
2022-12-03T09:56:58.712Z,24.70
2022-12-03T09:59:33.186Z,30.10
2022-12-03T10:02:06.800Z,26.60
2022-12-03T10:04:35.699Z,28.63
2022-12-03T10:07:04.453Z,27.33
2022-12-03T10:09:35.457Z,28.10
2022-12-03T10:12:04.467Z,25.70
2022-12-03T10:14:33.295Z,24.07
2022-12-03T10:17:03.540Z,26.50
2022-12-03T10:19:35.676Z,30.13
2022-12-03T10:22:04.897Z,24.57
2022-12-03T10:24:35.786Z,24.37
2022-12-03T10:27:20.511Z,115.27
2022-12-03T10:29:57.372Z,34.77
2022-12-03T10:32:41.643Z,24.53
2022-12-03T10:35:14.817Z,26.93
2022-12-03T10:38:02.509Z,29.13
2022-12-03T10:40:33.539Z,25.90
2022-12-03T10:43:21.462Z,25.73
2022-12-03T10:46:11.131Z,235.57
2022-12-03T10:48:41.152Z,25.07
2022-12-03T10:51:21.398Z,23.80
2022-12-03T10:53:52.244Z,23.20
2022-12-03T10:56:28.121Z,25.67
2022-12-03T10:58:57.320Z,23.50
2022-12-03T11:01:27.807Z,23.87
2022-12-03T11:04:05.591Z,23.33
2022-12-03T11:06:34.332Z,22.57
2022-12-03T11:09:08.767Z,23.37
2022-12-03T11:11:38.099Z,24.33
2022-12-03T11:14:07.184Z,24.00
2022-12-03T11:17:09.948Z,25.73
2022-12-03T11:19:50.238Z,29.67
2022-12-03T11:22:40.965Z,23.97
2022-12-03T11:25:51.493Z,25.77
2022-12-03T11:28:53.299Z,28.30
2022-12-03T11:31:43.768Z,27.57
2022-12-03T11:34:42.057Z,30.77
2022-12-03T11:37:27.600Z,26.90
2022-12-03T11:40:26.628Z,23.80
2022-12-03T11:42:55.297Z,36.73
2022-12-03T11:45:35.158Z,24.63
2022-12-03T11:48:13.745Z,76.13
2022-12-03T11:50:48.499Z,31.30
2022-12-03T11:53:23.688Z,27.17
2022-12-03T11:56:06.592Z,25.20
2022-12-03T11:58:38.201Z,23.57
2022-12-03T12:01:09.366Z,30.50
2022-12-03T12:03:45.933Z,29.13
2022-12-03T12:06:17.727Z,28.33
2022-12-03T12:09:00.324Z,25.37
2022-12-03T12:11:31.425Z,36.23
2022-12-03T12:14:02.165Z,26.00
2022-12-03T12:16:50.283Z,25.87
2022-12-03T12:19:43.827Z,28.90
2022-12-03T12:22:30.123Z,28.97
2022-12-03T12:25:01.618Z,26.67
2022-12-03T12:27:37.795Z,28.80
2022-12-03T12:30:13.797Z,22.20
2022-12-03T12:32:47.731Z,22.43
2022-12-03T12:35:20.430Z,24.03
2022-12-03T12:37:58.957Z,22.40
2022-12-03T12:40:33.913Z,22.33
2022-12-03T12:43:12.017Z,25.03
2022-12-03T12:45:45.143Z,23.60
2022-12-03T12:48:23.537Z,27.63
2022-12-03T12:50:59.952Z,23.90
2022-12-03T12:53:31.728Z,26.70
2022-12-03T12:56:08.496Z,27.47
2022-12-03T12:58:37.878Z,23.43
2022-12-03T13:01:18.682Z,24.17
2022-12-03T13:03:51.627Z,26.00
2022-12-03T13:06:27.293Z,24.30
2022-12-03T13:08:58.100Z,22.80
2022-12-03T13:11:41.441Z,23.50
2022-12-03T13:14:18.667Z,22.43
2022-12-03T13:16:48.545Z,22.73
2022-12-03T13:19:26.849Z,24.23
2022-12-03T13:21:57.965Z,27.83
2022-12-03T13:24:34.982Z,21.63
2022-12-03T13:27:25.669Z,25.57
2022-12-03T13:30:01.182Z,21.13
2022-12-03T13:32:34.281Z,22.23
2022-12-03T13:35:07.820Z,20.57
2022-12-03T13:37:38.034Z,22.20
2022-12-03T13:40:22.463Z,23.47
2022-12-03T13:42:54.253Z,23.50
2022-12-03T13:45:37.931Z,21.27
2022-12-03T13:48:22.885Z,26.10
2022-12-03T13:50:53.846Z,23.00
2022-12-03T13:53:25.619Z,24.50
2022-12-03T13:56:02.115Z,25.43
2022-12-03T13:58:32.190Z,24.23
2022-12-03T14:01:15.794Z,22.70
2022-12-03T14:03:45.468Z,24.30
2022-12-03T14:06:14.432Z,22.03
2022-12-03T14:08:43.230Z,22.63
2022-12-03T14:11:33.231Z,24.63
2022-12-03T14:14:03.202Z,26.10
2022-12-03T14:16:32.064Z,29.83
2022-12-03T14:19:00.755Z,29.10
2022-12-03T14:21:33.063Z,28.93
2022-12-03T14:24:07.124Z,29.03
2022-12-03T14:26:35.761Z,23.73
2022-12-03T14:29:08.723Z,26.20
2022-12-03T14:31:37.827Z,31.63
2022-12-03T14:34:06.568Z,28.33
2022-12-03T14:36:35.196Z,23.17
2022-12-03T14:39:03.849Z,23.50
2022-12-03T14:41:49.968Z,22.77
2022-12-03T14:44:21.845Z,23.00
2022-12-03T14:46:56.564Z,23.90
2022-12-03T14:49:25.800Z,20.90
2022-12-03T14:51:54.614Z,23.30
2022-12-03T14:54:23.601Z,22.13
2022-12-03T14:56:52.147Z,24.90
2022-12-03T14:59:27.474Z,25.67
2022-12-03T15:01:57.179Z,26.13
2022-12-03T15:04:26.121Z,20.40
2022-12-03T15:06:54.842Z,25.20
2022-12-03T15:09:23.743Z,23.50
2022-12-03T15:11:52.416Z,20.90
2022-12-03T15:14:22.514Z,19.97
2022-12-03T15:16:51.317Z,25.77
2022-12-03T15:19:20.028Z,23.60
2022-12-03T15:21:48.631Z,23.60
2022-12-03T15:24:17.180Z,22.03
2022-12-03T15:26:46.144Z,24.57
2022-12-03T15:29:15.160Z,28.40
2022-12-03T15:31:45.168Z,23.20
2022-12-03T15:34:18.725Z,19.10
2022-12-03T15:36:50.673Z,22.60
2022-12-03T15:39:19.200Z,26.57
2022-12-03T15:41:49.138Z,22.27
2022-12-03T15:44:18.902Z,23.00
2022-12-03T15:46:48.851Z,26.97
2022-12-03T15:49:18.333Z,26.70
2022-12-03T15:51:46.895Z,23.20
2022-12-03T15:54:15.535Z,22.50
2022-12-03T15:56:44.249Z,24.63
2022-12-03T15:59:13.404Z,24.40
2022-12-03T16:01:42.186Z,27.33
2022-12-03T16:04:12.519Z,22.43
2022-12-03T16:06:41.282Z,29.50
2022-12-03T16:09:09.873Z,26.93
2022-12-03T16:11:38.808Z,27.40
2022-12-03T16:14:07.508Z,26.17
2022-12-03T16:16:36.548Z,24.13
2022-12-03T16:19:05.194Z,28.37
2022-12-03T16:21:35.649Z,24.07
2022-12-03T16:24:04.761Z,26.83
2022-12-03T16:26:33.522Z,27.07
2022-12-03T16:29:02.222Z,30.53
2022-12-03T16:31:31.438Z,29.67
2022-12-03T16:34:00.416Z,24.77
2022-12-03T16:36:29.139Z,19.90
2022-12-03T16:38:59.135Z,24.57
2022-12-03T16:41:27.978Z,26.97
2022-12-03T16:43:56.622Z,32.43
2022-12-03T16:46:26.811Z,27.90
2022-12-03T16:48:57.972Z,27.33
2022-12-03T16:51:28.000Z,27.43
2022-12-03T16:53:57.965Z,27.10
2022-12-03T16:56:26.568Z,28.00
2022-12-03T16:58:55.084Z,26.27
2022-12-03T17:01:24.217Z,25.47
2022-12-03T17:03:52.964Z,25.60
2022-12-03T17:06:21.513Z,26.30
2022-12-03T17:08:50.362Z,33.27
2022-12-03T17:11:20.527Z,29.73
2022-12-03T17:13:48.966Z,29.37
2022-12-03T17:16:17.625Z,28.83
2022-12-03T17:18:46.367Z,26.77
2022-12-03T17:21:14.884Z,26.23
2022-12-03T17:23:44.738Z,27.13
2022-12-03T17:26:15.183Z,23.10
2022-12-03T17:28:45.731Z,27.93
2022-12-03T17:31:14.935Z,23.37
2022-12-03T17:33:44.065Z,25.57
2022-12-03T17:36:12.870Z,29.03
2022-12-03T17:38:41.537Z,24.70
2022-12-03T17:41:10.142Z,31.57
2022-12-03T17:43:38.728Z,23.60
2022-12-03T17:46:08.845Z,20.77
2022-12-03T17:48:37.884Z,23.00
2022-12-03T17:51:09.500Z,22.77
2022-12-03T17:53:38.079Z,22.63
2022-12-03T17:56:07.284Z,25.43
2022-12-03T17:58:35.939Z,23.97
2022-12-03T18:01:05.627Z,21.33
2022-12-03T18:03:35.706Z,25.27
2022-12-03T18:06:05.069Z,29.10
2022-12-03T18:08:33.653Z,24.57
2022-12-03T18:11:02.292Z,23.07
2022-12-03T18:13:30.936Z,20.60
2022-12-03T18:15:59.698Z,22.07
2022-12-03T18:18:29.038Z,26.57
2022-12-03T18:21:02.120Z,21.13
2022-12-03T18:23:31.618Z,26.20
2022-12-03T18:26:02.019Z,27.27
2022-12-03T18:28:31.248Z,26.17
2022-12-03T18:31:00.727Z,26.10
2022-12-03T18:33:29.755Z,21.83
2022-12-03T18:35:59.964Z,21.10
2022-12-03T18:38:32.554Z,26.87
2022-12-03T18:41:01.569Z,23.57
2022-12-03T18:43:30.869Z,22.23
2022-12-03T18:45:59.514Z,22.57
2022-12-03T18:48:28.152Z,21.63
2022-12-03T18:50:57.117Z,24.23
2022-12-03T18:53:26.990Z,24.60
2022-12-03T18:55:55.496Z,24.13
2022-12-03T18:58:23.974Z,25.83
2022-12-03T19:00:52.709Z,23.70
2022-12-03T19:03:21.936Z,27.90
2022-12-03T19:05:50.627Z,22.93
2022-12-03T19:08:23.308Z,19.97
2022-12-03T19:11:00.075Z,30.33
2022-12-03T19:13:29.477Z,21.63
2022-12-03T19:15:58.087Z,27.10
2022-12-03T19:18:26.970Z,25.47
2022-12-03T19:20:55.519Z,23.30
2022-12-03T19:23:24.656Z,20.37
2022-12-03T19:25:59.235Z,23.13
2022-12-03T19:28:29.107Z,21.07
2022-12-03T19:31:00.767Z,25.00
2022-12-03T19:33:31.006Z,25.37
2022-12-03T19:36:00.942Z,27.53
2022-12-03T19:38:31.363Z,26.63
2022-12-03T19:41:03.314Z,29.23
2022-12-03T19:43:32.877Z,23.93
2022-12-03T19:46:05.039Z,24.73
2022-12-03T19:48:35.759Z,23.57
2022-12-03T19:51:32.350Z,25.60
2022-12-03T19:53:55.420Z,26.87
2022-12-03T19:56:25.559Z,32.97
2022-12-03T19:58:56.719Z,23.00
2022-12-03T20:01:28.788Z,20.87
2022-12-03T20:04:00.194Z,21.57
2022-12-03T20:06:34.619Z,22.40
2022-12-03T20:09:07.659Z,21.57
2022-12-03T20:11:37.775Z,19.40
2022-12-03T20:14:09.174Z,23.03
2022-12-03T20:16:38.454Z,24.03
2022-12-03T20:19:11.162Z,19.17
2022-12-03T20:21:41.069Z,20.87
2022-12-03T20:24:18.266Z,24.57
2022-12-03T20:26:48.704Z,21.33
2022-12-03T20:29:17.938Z,20.00
2022-12-03T20:31:46.809Z,25.13
2022-12-03T20:34:15.657Z,25.53
2022-12-03T20:36:45.546Z,25.67
2022-12-03T20:39:14.151Z,23.87
2022-12-03T20:41:42.838Z,25.60
2022-12-03T20:44:13.934Z,25.47
2022-12-03T20:46:42.641Z,22.13
2022-12-03T20:49:11.255Z,24.60
2022-12-03T20:51:41.112Z,23.97
2022-12-03T20:54:10.621Z,23.50
2022-12-03T20:56:41.983Z,24.50
2022-12-03T20:59:15.766Z,23.50
2022-12-03T21:01:45.461Z,26.23
2022-12-03T21:04:16.150Z,25.30
2022-12-03T21:06:45.263Z,18.90
2022-12-03T21:09:14.890Z,22.40
2022-12-03T21:11:43.648Z,24.60
2022-12-03T21:14:13.670Z,25.90
2022-12-03T21:17:07.329Z,23.33
2022-12-03T21:19:35.210Z,24.10
2022-12-03T21:22:03.804Z,26.13
2022-12-03T21:24:32.385Z,24.83
2022-12-03T21:27:01.015Z,26.93
2022-12-03T21:29:31.336Z,25.67
2022-12-03T21:32:00.307Z,19.73
2022-12-03T21:34:35.783Z,23.50
2022-12-03T21:37:05.651Z,24.00
2022-12-03T21:39:34.308Z,21.37
2022-12-03T21:42:34.100Z,23.33
2022-12-03T21:44:53.559Z,21.03
2022-12-03T21:47:22.172Z,22.30
2022-12-03T21:49:50.731Z,27.03
2022-12-03T21:52:19.525Z,21.60
2022-12-03T21:54:48.291Z,23.10
2022-12-03T21:57:16.926Z,23.97
2022-12-03T21:59:45.461Z,24.50
2022-12-03T22:02:15.590Z,23.63
2022-12-03T22:04:44.364Z,23.23
2022-12-03T22:07:12.891Z,25.90
2022-12-03T22:09:44.882Z,22.77
2022-12-03T22:12:13.704Z,28.83
2022-12-03T22:14:42.352Z,22.40
2022-12-03T22:17:10.916Z,25.37
2022-12-03T22:19:40.821Z,24.50
2022-12-03T22:22:09.542Z,18.37
2022-12-03T22:24:38.608Z,21.20
2022-12-03T22:27:07.316Z,21.47
2022-12-03T22:29:35.965Z,20.17
2022-12-03T22:32:05.200Z,22.33
2022-12-03T22:34:34.539Z,20.50
2022-12-03T22:37:05.209Z,21.93
2022-12-03T22:39:34.046Z,20.07
2022-12-03T22:42:03.244Z,25.30
2022-12-03T22:44:32.006Z,22.43
2022-12-03T22:47:00.696Z,21.33
2022-12-03T22:49:29.601Z,19.30
2022-12-03T22:51:58.342Z,25.23
2022-12-03T22:54:28.474Z,22.73
2022-12-03T22:56:58.297Z,22.83
2022-12-03T22:59:27.085Z,24.03
2022-12-03T23:01:55.945Z,22.03
2022-12-03T23:04:28.093Z,26.40
2022-12-03T23:06:59.379Z,20.67
2022-12-03T23:09:30.025Z,22.70
2022-12-03T23:11:58.765Z,25.07
2022-12-03T23:14:27.466Z,20.50
2022-12-03T23:16:56.336Z,26.67
2022-12-03T23:19:25.226Z,21.47
2022-12-03T23:21:53.759Z,17.50
2022-12-03T23:24:22.372Z,20.23
2022-12-03T23:26:52.408Z,27.47
2022-12-03T23:29:20.942Z,19.90
2022-12-03T23:31:49.576Z,22.17
2022-12-03T23:34:18.677Z,22.53
2022-12-03T23:36:47.295Z,22.80
2022-12-03T23:39:15.872Z,20.33
2022-12-03T23:41:44.514Z,22.87
2022-12-03T23:44:14.334Z,24.27
2022-12-03T23:46:43.008Z,23.20
2022-12-03T23:49:11.864Z,22.57
2022-12-03T23:51:43.129Z,20.87
2022-12-03T23:54:15.699Z,19.43
2022-12-03T23:56:50.191Z,21.33
2022-12-03T23:59:21.929Z,25.30
